sensor_id;sensor_type;location;lat;lon;timestamp;pressure;altitude;pressure_sealevel;temperature;humidity
69848;BME280;57143;55.940;37.496;2023-03-02T00:00:54;96045.06;;;-4.16;100.00
69848;BME280;57143;55.940;37.496;2023-03-02T00:03:24;96071.44;;;-3.85;100.00
69848;BME280;57143;55.940;37.496;2023-03-02T00:05:54;96082.28;;;-3.93;100.00
69848;BME280;57143;55.940;37.496;2023-03-02T00:08:21;96074.72;;;-3.90;100.00
69848;BME280;57143;55.940;37.496;2023-03-02T00:10:49;96072.91;;;-3.89;100.00
69848;BME280;57143;55.940;37.496;2023-03-02T00:13:16;96068.22;;;-3.87;100.00
69848;BME280;57143;55.940;37.496;2023-03-02T00:15:43;96063.22;;;-3.77;100.00
69848;BME280;57143;55.940;37.496;2023-03-02T00:18:10;96037.97;;;-3.73;100.00
69848;BME280;57143;55.940;37.496;2023-03-02T00:20:37;96037.47;;;-3.64;100.00
69848;BME280;57143;55.940;37.496;2023-03-02T00:23:06;96047.59;;;-3.61;100.00
69848;BME280;57143;55.940;37.496;2023-03-02T00:25:34;96053.41;;;-3.70;100.00
69848;BME280;57143;55.940;37.496;2023-03-02T00:28:02;96079.25;;;-3.72;100.00
69848;BME280;57143;55.940;37.496;2023-03-02T00:30:29;96082.94;;;-3.98;100.00
69848;BME280;57143;55.940;37.496;2023-03-02T00:32:56;96129.66;;;-3.92;100.00
69848;BME280;57143;55.940;37.496;2023-03-02T00:35:23;96155.75;;;-3.95;100.00
69848;BME280;57143;55.940;37.496;2023-03-02T00:37:51;96165.41;;;-4.14;100.00
69848;BME280;57143;55.940;37.496;2023-03-02T00:40:20;96201.63;;;-4.14;100.00
69848;BME280;57143;55.940;37.496;2023-03-02T00:42:47;96204.50;;;-4.22;100.00
69848;BME280;57143;55.940;37.496;2023-03-02T00:45:14;96213.69;;;-4.25;100.00
69848;BME280;57143;55.940;37.496;2023-03-02T00:47:41;96232.53;;;-4.15;100.00
69848;BME280;57143;55.940;37.496;2023-03-02T00:50:09;96237.63;;;-4.13;100.00
69848;BME280;57143;55.940;37.496;2023-03-02T00:52:36;96254.69;;;-4.09;100.00
69848;BME280;57143;55.940;37.496;2023-03-02T00:55:04;96262.84;;;-4.11;100.00
69848;BME280;57143;55.940;37.496;2023-03-02T00:57:33;96259.56;;;-4.06;100.00
69848;BME280;57143;55.940;37.496;2023-03-02T01:00:00;96267.91;;;-4.09;100.00
69848;BME280;57143;55.940;37.496;2023-03-02T01:02:32;96280.28;;;-4.03;100.00
69848;BME280;57143;55.940;37.496;2023-03-02T01:04:59;96304.25;;;-3.98;100.00
69848;BME280;57143;55.940;37.496;2023-03-02T01:07:26;96318.28;;;-3.98;100.00
69848;BME280;57143;55.940;37.496;2023-03-02T01:09:53;96343.53;;;-4.02;100.00
69848;BME280;57143;55.940;37.496;2023-03-02T01:12:21;96352.31;;;-4.08;100.00
69848;BME280;57143;55.940;37.496;2023-03-02T01:14:49;96347.22;;;-4.16;100.00
69848;BME280;57143;55.940;37.496;2023-03-02T01:17:16;96368.59;;;-4.24;100.00
69848;BME280;57143;55.940;37.496;2023-03-02T01:19:43;96385.91;;;-4.21;100.00
69848;BME280;57143;55.940;37.496;2023-03-02T01:22:11;96389.53;;;-4.16;100.00
69848;BME280;57143;55.940;37.496;2023-03-02T01:24:38;96383.03;;;-4.13;100.00
69848;BME280;57143;55.940;37.496;2023-03-02T01:27:05;96389.34;;;-4.21;100.00
69848;BME280;57143;55.940;37.496;2023-03-02T01:29:32;96382.84;;;-4.31;100.00
69848;BME280;57143;55.940;37.496;2023-03-02T01:32:01;96405.41;;;-4.22;100.00
69848;BME280;57143;55.940;37.496;2023-03-02T01:34:28;96413.53;;;-4.11;100.00
69848;BME280;57143;55.940;37.496;2023-03-02T01:36:55;96378.38;;;-4.31;100.00
69848;BME280;57143;55.940;37.496;2023-03-02T01:39:22;96417.16;;;-4.05;100.00
69848;BME280;57143;55.940;37.496;2023-03-02T01:41:51;96420.81;;;-4.00;100.00
69848;BME280;57143;55.940;37.496;2023-03-02T01:44:33;96426.31;;;-3.95;100.00
69848;BME280;57143;55.940;37.496;2023-03-02T01:47:04;96427.75;;;-4.05;100.00
69848;BME280;57143;55.940;37.496;2023-03-02T01:49:40;96433.63;;;-3.90;100.00
69848;BME280;57143;55.940;37.496;2023-03-02T01:52:10;96428.94;;;-3.95;100.00
69848;BME280;57143;55.940;37.496;2023-03-02T01:54:38;96447.25;;;-3.87;100.00
69848;BME280;57143;55.940;37.496;2023-03-02T01:57:07;96449.28;;;-3.89;100.00
69848;BME280;57143;55.940;37.496;2023-03-02T01:59:35;96449.28;;;-3.89;100.00
69848;BME280;57143;55.940;37.496;2023-03-02T02:02:07;96436.66;;;-3.93;100.00
69848;BME280;57143;55.940;37.496;2023-03-02T02:04:37;96462.09;;;-3.86;100.00
69848;BME280;57143;55.940;37.496;2023-03-02T02:07:07;96492.00;;;-3.92;100.00
69848;BME280;57143;55.940;37.496;2023-03-02T02:09:37;96453.56;;;-3.94;100.00
69848;BME280;57143;55.940;37.496;2023-03-02T02:12:10;96494.84;;;-3.80;100.00
69848;BME280;57143;55.940;37.496;2023-03-02T02:14:38;96462.91;;;-3.92;100.00
69848;BME280;57143;55.940;37.496;2023-03-02T02:17:07;96493.22;;;-3.81;100.00
69848;BME280;57143;55.940;37.496;2023-03-02T02:19:45;96496.03;;;-3.76;100.00
69848;BME280;57143;55.940;37.496;2023-03-02T02:22:14;96501.38;;;-3.89;100.00
69848;BME280;57143;55.940;37.496;2023-03-02T02:24:51;96504.41;;;-3.86;100.00
69848;BME280;57143;55.940;37.496;2023-03-02T02:27:23;96539.63;;;-3.79;100.00
69848;BME280;57143;55.940;37.496;2023-03-02T02:29:59;96520.09;;;-3.97;100.00
69848;BME280;57143;55.940;37.496;2023-03-02T02:32:34;96557.72;;;-3.82;100.00
69848;BME280;57143;55.940;37.496;2023-03-02T02:35:04;96492.25;;;-4.26;100.00
69848;BME280;57143;55.940;37.496;2023-03-02T02:37:38;96579.09;;;-3.84;100.00
69848;BME280;57143;55.940;37.496;2023-03-02T02:40:12;96595.56;;;-3.95;100.00
69848;BME280;57143;55.940;37.496;2023-03-02T02:42:43;96573.19;;;-3.92;100.00
69848;BME280;57143;55.940;37.496;2023-03-02T02:45:18;96599.22;;;-3.83;100.00
69848;BME280;57143;55.940;37.496;2023-03-02T02:47:46;96612.25;;;-4.07;100.00
69848;BME280;57143;55.940;37.496;2023-03-02T02:50:17;96641.34;;;-4.01;100.00
69848;BME280;57143;55.940;37.496;2023-03-02T02:52:46;96655.00;;;-3.91;100.00
69848;BME280;57143;55.940;37.496;2023-03-02T02:55:19;96678.38;;;-3.94;100.00
69848;BME280;57143;55.940;37.496;2023-03-02T02:57:49;96682.06;;;-3.95;100.00
69848;BME280;57143;55.940;37.496;2023-03-02T03:00:18;96679.56;;;-4.03;100.00
69848;BME280;57143;55.940;37.496;2023-03-02T03:02:50;96698.50;;;-4.00;100.00
69848;BME280;57143;55.940;37.496;2023-03-02T03:05:19;96689.13;;;-4.09;100.00
69848;BME280;57143;55.940;37.496;2023-03-02T03:07:46;96730.47;;;-3.95;100.00
69848;BME280;57143;55.940;37.496;2023-03-02T03:10:15;96742.41;;;-4.12;100.00
69848;BME280;57143;55.940;37.496;2023-03-02T03:12:44;96771.50;;;-4.05;100.00
69848;BME280;57143;55.940;37.496;2023-03-02T03:15:13;96779.66;;;-4.07;100.00
69848;BME280;57143;55.940;37.496;2023-03-02T03:17:46;96780.06;;;-4.10;100.00
69848;BME280;57143;55.940;37.496;2023-03-02T03:20:15;96800.22;;;-4.02;100.00
69848;BME280;57143;55.940;37.496;2023-03-02T03:22:43;96795.38;;;-3.92;100.00
69848;BME280;57143;55.940;37.496;2023-03-02T03:25:10;96801.03;;;-4.02;100.00
69848;BME280;57143;55.940;37.496;2023-03-02T03:27:40;96807.34;;;-3.96;100.00
69848;BME280;57143;55.940;37.496;2023-03-02T03:30:11;96813.06;;;-3.99;100.00
69848;BME280;57143;55.940;37.496;2023-03-02T03:32:40;96826.19;;;-4.12;100.00
69848;BME280;57143;55.940;37.496;2023-03-02T03:35:08;96818.91;;;-4.04;100.00
69848;BME280;57143;55.940;37.496;2023-03-02T03:37:37;96829.75;;;-3.99;100.00
69848;BME280;57143;55.940;37.496;2023-03-02T03:40:06;96807.00;;;-4.34;100.00
69848;BME280;57143;55.940;37.496;2023-03-02T03:42:35;96841.91;;;-4.04;100.00
69848;BME280;57143;55.940;37.496;2023-03-02T03:45:03;96859.59;;;-4.05;100.00
69848;BME280;57143;55.940;37.496;2023-03-02T03:47:30;96863.94;;;-3.97;100.00
69848;BME280;57143;55.940;37.496;2023-03-02T03:49:59;96879.50;;;-4.09;100.00
69848;BME280;57143;55.940;37.496;2023-03-02T03:52:26;96876.69;;;-4.07;100.00
69848;BME280;57143;55.940;37.496;2023-03-02T03:54:56;96860.91;;;-4.28;100.00
69848;BME280;57143;55.940;37.496;2023-03-02T03:57:24;96899.28;;;-4.05;100.00
69848;BME280;57143;55.940;37.496;2023-03-02T03:59:51;96894.41;;;-4.01;100.00
69848;BME280;57143;55.940;37.496;2023-03-02T04:02:19;96906.38;;;-4.05;100.00
69848;BME280;57143;55.940;37.496;2023-03-02T04:04:46;96920.09;;;-3.95;100.00
69848;BME280;57143;55.940;37.496;2023-03-02T04:07:15;96915.34;;;-4.06;100.00
69848;BME280;57143;55.940;37.496;2023-03-02T04:09:42;96902.88;;;-4.12;100.00
69848;BME280;57143;55.940;37.496;2023-03-02T04:12:10;96915.81;;;-3.96;100.00
69848;BME280;57143;55.940;37.496;2023-03-02T04:14:37;96923.41;;;-3.87;100.00
69848;BME280;57143;55.940;37.496;2023-03-02T04:17:04;96932.91;;;-3.99;100.00
69848;BME280;57143;55.940;37.496;2023-03-02T04:19:32;96948.56;;;-3.97;100.00
69848;BME280;57143;55.940;37.496;2023-03-02T04:22:00;96926.16;;;-4.01;100.00
69848;BME280;57143;55.940;37.496;2023-03-02T04:24:30;96934.19;;;-4.16;100.00
69848;BME280;57143;55.940;37.496;2023-03-02T04:26:57;96953.47;;;-3.94;100.00
69848;BME280;57143;55.940;37.496;2023-03-02T04:29:25;96941.25;;;-3.95;100.00
69848;BME280;57143;55.940;37.496;2023-03-02T04:31:52;96966.06;;;-3.96;100.00
69848;BME280;57143;55.940;37.496;2023-03-02T04:34:19;96966.03;;;-4.03;100.00
69848;BME280;57143;55.940;37.496;2023-03-02T04:36:46;96988.59;;;-4.00;100.00
69848;BME280;57143;55.940;37.496;2023-03-02T04:39:15;97001.47;;;-3.97;100.00
69848;BME280;57143;55.940;37.496;2023-03-02T04:41:44;97026.94;;;-3.90;100.00
69848;BME280;57143;55.940;37.496;2023-03-02T04:44:12;97026.66;;;-4.01;100.00
69848;BME280;57143;55.940;37.496;2023-03-02T04:46:41;97021.41;;;-3.95;100.00
69848;BME280;57143;55.940;37.496;2023-03-02T04:49:08;97047.91;;;-3.88;100.00
69848;BME280;57143;55.940;37.496;2023-03-02T04:51:38;97046.88;;;-3.94;100.00
69848;BME280;57143;55.940;37.496;2023-03-02T04:54:09;97057.88;;;-3.90;100.00
69848;BME280;57143;55.940;37.496;2023-03-02T04:56:36;97072.09;;;-3.91;100.00
69848;BME280;57143;55.940;37.496;2023-03-02T04:59:04;97073.22;;;-3.79;100.00
69848;BME280;57143;55.940;37.496;2023-03-02T05:01:32;97084.63;;;-3.79;100.00
69848;BME280;57143;55.940;37.496;2023-03-02T05:03:59;97090.06;;;-3.87;100.00
69848;BME280;57143;55.940;37.496;2023-03-02T05:06:26;97107.59;;;-3.79;100.00
69848;BME280;57143;55.940;37.496;2023-03-02T05:08:53;97086.34;;;-3.92;100.00
69848;BME280;57143;55.940;37.496;2023-03-02T05:11:24;97118.63;;;-3.76;100.00
69848;BME280;57143;55.940;37.496;2023-03-02T05:13:53;97129.25;;;-3.69;100.00
69848;BME280;57143;55.940;37.496;2023-03-02T05:16:24;97141.88;;;-3.71;100.00
69848;BME280;57143;55.940;37.496;2023-03-02T05:18:54;97134.69;;;-3.77;100.00
69848;BME280;57143;55.940;37.496;2023-03-02T05:21:21;97135.97;;;-3.73;100.00
69848;BME280;57143;55.940;37.496;2023-03-02T05:23:48;97155.56;;;-3.68;100.00
69848;BME280;57143;55.940;37.496;2023-03-02T05:26:15;97146.22;;;-3.64;100.00
69848;BME280;57143;55.940;37.496;2023-03-02T05:28:43;97142.72;;;-3.64;100.00
69848;BME280;57143;55.940;37.496;2023-03-02T05:31:13;97126.75;;;-3.77;100.00
69848;BME280;57143;55.940;37.496;2023-03-02T05:33:45;97159.50;;;-3.57;100.00
69848;BME280;57143;55.940;37.496;2023-03-02T05:36:12;97155.22;;;-3.58;100.00
69848;BME280;57143;55.940;37.496;2023-03-02T05:38:39;97169.50;;;-3.31;100.00
69848;BME280;57143;55.940;37.496;2023-03-02T05:41:07;97168.66;;;-3.32;100.00
69848;BME280;57143;55.940;37.496;2023-03-02T05:43:34;97168.22;;;-3.35;100.00
69848;BME280;57143;55.940;37.496;2023-03-02T05:46:02;97164.50;;;-3.13;100.00
69848;BME280;57143;55.940;37.496;2023-03-02T05:48:30;97187.28;;;-3.19;100.00
69848;BME280;57143;55.940;37.496;2023-03-02T05:50:58;97207.03;;;-2.94;100.00
69848;BME280;57143;55.940;37.496;2023-03-02T05:53:25;97200.16;;;-2.88;100.00
69848;BME280;57143;55.940;37.496;2023-03-02T05:55:53;97218.38;;;-2.72;100.00
69848;BME280;57143;55.940;37.496;2023-03-02T05:58:20;97251.56;;;-2.49;100.00
69848;BME280;57143;55.940;37.496;2023-03-02T06:00:47;97251.81;;;-2.37;100.00
69848;BME280;57143;55.940;37.496;2023-03-02T06:03:15;97274.63;;;-2.43;100.00
69848;BME280;57143;55.940;37.496;2023-03-02T06:05:42;97303.41;;;-2.40;100.00
69848;BME280;57143;55.940;37.496;2023-03-02T06:08:11;97310.94;;;-2.43;100.00
69848;BME280;57143;55.940;37.496;2023-03-02T06:10:38;97329.13;;;-2.40;100.00
69848;BME280;57143;55.940;37.496;2023-03-02T06:13:05;97338.53;;;-2.31;100.00
69848;BME280;57143;55.940;37.496;2023-03-02T06:15:32;97382.16;;;-2.40;100.00
69848;BME280;57143;55.940;37.496;2023-03-02T06:17:59;97384.41;;;-2.37;100.00
69848;BME280;57143;55.940;37.496;2023-03-02T06:20:26;97372.75;;;-2.43;100.00
69848;BME280;57143;55.940;37.496;2023-03-02T06:22:53;97377.47;;;-2.38;100.00
69848;BME280;57143;55.940;37.496;2023-03-02T06:25:23;97394.13;;;-2.51;100.00
69848;BME280;57143;55.940;37.496;2023-03-02T06:27:51;97378.28;;;-2.38;100.00
69848;BME280;57143;55.940;37.496;2023-03-02T06:30:21;97361.19;;;-2.35;100.00
69848;BME280;57143;55.940;37.496;2023-03-02T06:32:48;97346.50;;;-2.59;100.00
69848;BME280;57143;55.940;37.496;2023-03-02T06:35:16;97346.03;;;-2.41;100.00
69848;BME280;57143;55.940;37.496;2023-03-02T06:37:43;97324.53;;;-2.53;100.00
69848;BME280;57143;55.940;37.496;2023-03-02T06:40:11;97334.28;;;-2.25;100.00
69848;BME280;57143;55.940;37.496;2023-03-02T06:42:41;97328.28;;;-2.06;100.00
69848;BME280;57143;55.940;37.496;2023-03-02T06:45:09;97314.91;;;-1.92;100.00
69848;BME280;57143;55.940;37.496;2023-03-02T06:47:37;97309.84;;;-1.74;100.00
69848;BME280;57143;55.940;37.496;2023-03-02T06:50:05;97319.03;;;-1.76;100.00
69848;BME280;57143;55.940;37.496;2023-03-02T06:52:32;97321.19;;;-1.33;100.00
69848;BME280;57143;55.940;37.496;2023-03-02T06:55:00;97327.81;;;-1.09;100.00
69848;BME280;57143;55.940;37.496;2023-03-02T06:57:28;97340.06;;;-1.14;100.00
69848;BME280;57143;55.940;37.496;2023-03-02T07:00:00;97366.47;;;-0.93;100.00
69848;BME280;57143;55.940;37.496;2023-03-02T07:02:34;97396.94;;;-0.96;100.00
69848;BME280;57143;55.940;37.496;2023-03-02T07:05:01;97415.72;;;-1.04;100.00
69848;BME280;57143;55.940;37.496;2023-03-02T07:07:29;97415.53;;;-1.02;100.00
69848;BME280;57143;55.940;37.496;2023-03-02T07:09:56;97419.78;;;-1.08;100.00
69848;BME280;57143;55.940;37.496;2023-03-02T07:12:23;97409.97;;;-1.14;100.00
69848;BME280;57143;55.940;37.496;2023-03-02T07:14:51;97435.25;;;-1.31;100.00
69848;BME280;57143;55.940;37.496;2023-03-02T07:17:19;97428.72;;;-1.35;100.00
69848;BME280;57143;55.940;37.496;2023-03-02T07:19:46;97436.28;;;-1.26;100.00
69848;BME280;57143;55.940;37.496;2023-03-02T07:22:13;97452.63;;;-1.35;100.00
69848;BME280;57143;55.940;37.496;2023-03-02T07:24:40;97439.59;;;-1.17;100.00
69848;BME280;57143;55.940;37.496;2023-03-02T07:27:07;97438.41;;;-1.01;100.00
69848;BME280;57143;55.940;37.496;2023-03-02T07:29:35;97458.56;;;-1.27;100.00
69848;BME280;57143;55.940;37.496;2023-03-02T07:32:02;97437.22;;;-0.92;100.00
69848;BME280;57143;55.940;37.496;2023-03-02T07:34:32;97443.84;;;-0.62;100.00
69848;BME280;57143;55.940;37.496;2023-03-02T07:36:59;97435.44;;;0.13;100.00
69848;BME280;57143;55.940;37.496;2023-03-02T07:39:26;97494.44;;;-0.23;100.00
69848;BME280;57143;55.940;37.496;2023-03-02T07:41:56;97544.94;;;-0.49;100.00
69848;BME280;57143;55.940;37.496;2023-03-02T07:44:25;97551.63;;;-0.73;100.00
69848;BME280;57143;55.940;37.496;2023-03-02T07:46:52;97550.91;;;-0.94;100.00
69848;BME280;57143;55.940;37.496;2023-03-02T07:49:20;97549.84;;;-0.59;100.00
69848;BME280;57143;55.940;37.496;2023-03-02T07:51:48;97558.16;;;-0.69;100.00
69848;BME280;57143;55.940;37.496;2023-03-02T07:54:16;97543.97;;;-0.35;100.00
69848;BME280;57143;55.940;37.496;2023-03-02T07:56:43;97560.75;;;-0.35;100.00
69848;BME280;57143;55.940;37.496;2023-03-02T07:59:10;97585.91;;;-0.44;100.00
69848;BME280;57143;55.940;37.496;2023-03-02T08:01:38;97594.28;;;-0.47;100.00
69848;BME280;57143;55.940;37.496;2023-03-02T08:04:05;97584.84;;;-0.49;100.00
69848;BME280;57143;55.940;37.496;2023-03-02T08:06:32;97611.13;;;-0.20;100.00
69848;BME280;57143;55.940;37.496;2023-03-02T08:09:03;97641.00;;;-0.78;100.00
69848;BME280;57143;55.940;37.496;2023-03-02T08:11:30;97631.13;;;-0.84;100.00
69848;BME280;57143;55.940;37.496;2023-03-02T08:13:58;97589.28;;;-0.69;100.00
69848;BME280;57143;55.940;37.496;2023-03-02T08:16:26;97577.53;;;-0.34;100.00
69848;BME280;57143;55.940;37.496;2023-03-02T08:18:53;97564.19;;;-0.47;100.00
69848;BME280;57143;55.940;37.496;2023-03-02T08:21:22;97573.59;;;-0.51;100.00
69848;BME280;57143;55.940;37.496;2023-03-02T08:23:50;97579.75;;;-0.44;100.00
69848;BME280;57143;55.940;37.496;2023-03-02T08:26:19;97593.78;;;-0.63;100.00
69848;BME280;57143;55.940;37.496;2023-03-02T08:28:46;97592.97;;;-0.64;100.00
69848;BME280;57143;55.940;37.496;2023-03-02T08:31:14;97611.81;;;-0.99;100.00
69848;BME280;57143;55.940;37.496;2023-03-02T08:33:42;97630.91;;;-0.89;100.00
69848;BME280;57143;55.940;37.496;2023-03-02T08:36:12;97616.22;;;-1.20;100.00
69848;BME280;57143;55.940;37.496;2023-03-02T08:38:40;97656.41;;;-1.29;100.00
69848;BME280;57143;55.940;37.496;2023-03-02T08:41:10;97656.59;;;-1.03;100.00
69848;BME280;57143;55.940;37.496;2023-03-02T08:43:39;97634.00;;;-0.79;100.00
69848;BME280;57143;55.940;37.496;2023-03-02T08:46:06;97642.16;;;-0.87;100.00
69848;BME280;57143;55.940;37.496;2023-03-02T08:48:33;97640.69;;;-0.62;100.00
69848;BME280;57143;55.940;37.496;2023-03-02T08:51:02;97671.34;;;-1.00;100.00
69848;BME280;57143;55.940;37.496;2023-03-02T08:53:33;97640.84;;;-1.04;100.00
69848;BME280;57143;55.940;37.496;2023-03-02T08:56:00;97659.84;;;-1.07;100.00
69848;BME280;57143;55.940;37.496;2023-03-02T08:58:28;97677.19;;;-1.11;100.00
69848;BME280;57143;55.940;37.496;2023-03-02T09:00:56;97661.88;;;-0.75;100.00
69848;BME280;57143;55.940;37.496;2023-03-02T09:03:23;97679.75;;;-0.97;100.00
69848;BME280;57143;55.940;37.496;2023-03-02T09:05:50;97686.44;;;-0.73;100.00
69848;BME280;57143;55.940;37.496;2023-03-02T09:08:17;97684.59;;;-0.73;100.00
69848;BME280;57143;55.940;37.496;2023-03-02T09:10:44;97700.25;;;-0.84;100.00
69848;BME280;57143;55.940;37.496;2023-03-02T09:13:12;97689.78;;;-0.58;100.00
69848;BME280;57143;55.940;37.496;2023-03-02T09:15:39;97705.03;;;-0.39;100.00
69848;BME280;57143;55.940;37.496;2023-03-02T09:18:07;97734.09;;;-0.72;100.00
69848;BME280;57143;55.940;37.496;2023-03-02T09:20:35;97745.66;;;-0.58;100.00
69848;BME280;57143;55.940;37.496;2023-03-02T09:23:02;97734.38;;;-0.26;100.00
69848;BME280;57143;55.940;37.496;2023-03-02T09:25:29;97736.13;;;-0.40;100.00
69848;BME280;57143;55.940;37.496;2023-03-02T09:27:56;97722.47;;;-0.37;100.00
69848;BME280;57143;55.940;37.496;2023-03-02T09:30:23;97722.50;;;-0.64;100.00
69848;BME280;57143;55.940;37.496;2023-03-02T09:32:51;97698.72;;;-0.38;100.00
69848;BME280;57143;55.940;37.496;2023-03-02T09:35:19;97646.28;;;-0.38;100.00
69848;BME280;57143;55.940;37.496;2023-03-02T09:37:47;97633.03;;;-0.25;100.00
69848;BME280;57143;55.940;37.496;2023-03-02T09:40:18;97583.34;;;0.28;100.00
69848;BME280;57143;55.940;37.496;2023-03-02T09:43:11;97541.50;;;-0.24;100.00
69848;BME280;57143;55.940;37.496;2023-03-02T09:46:01;97493.81;;;-0.38;100.00
69848;BME280;57143;55.940;37.496;2023-03-02T09:48:37;97486.88;;;0.07;100.00
69848;BME280;57143;55.940;37.496;2023-03-02T09:51:27;97478.63;;;-0.44;100.00
69848;BME280;57143;55.940;37.496;2023-03-02T09:54:00;97449.59;;;-0.33;100.00
69848;BME280;57143;55.940;37.496;2023-03-02T09:56:28;97446.53;;;-0.30;100.00
69848;BME280;57143;55.940;37.496;2023-03-02T09:59:01;97440.38;;;-0.17;100.00
69848;BME280;57143;55.940;37.496;2023-03-02T10:01:35;97440.34;;;0.16;100.00
69848;BME280;57143;55.940;37.496;2023-03-02T10:04:10;97457.78;;;-0.15;100.00
69848;BME280;57143;55.940;37.496;2023-03-02T10:06:41;97436.22;;;0.39;100.00
69848;BME280;57143;55.940;37.496;2023-03-02T10:09:08;97472.47;;;0.53;100.00
69848;BME280;57143;55.940;37.496;2023-03-02T10:11:51;97532.31;;;0.64;100.00
69848;BME280;57143;55.940;37.496;2023-03-02T10:14:25;97602.00;;;0.67;100.00
69848;BME280;57143;55.940;37.496;2023-03-02T10:17:01;97681.25;;;0.07;100.00
69848;BME280;57143;55.940;37.496;2023-03-02T10:19:34;97612.81;;;-0.06;100.00
69848;BME280;57143;55.940;37.496;2023-03-02T10:22:12;97683.94;;;0.20;100.00
69848;BME280;57143;55.940;37.496;2023-03-02T10:24:46;97703.34;;;-0.06;100.00
69848;BME280;57143;55.940;37.496;2023-03-02T10:27:21;97676.69;;;-0.19;100.00
69848;BME280;57143;55.940;37.496;2023-03-02T10:29:55;97628.97;;;-0.14;100.00
69848;BME280;57143;55.940;37.496;2023-03-02T10:32:28;97598.28;;;-0.04;100.00
69848;BME280;57143;55.940;37.496;2023-03-02T10:34:59;97597.41;;;-0.30;100.00
69848;BME280;57143;55.940;37.496;2023-03-02T10:37:30;97568.88;;;-0.49;100.00
69848;BME280;57143;55.940;37.496;2023-03-02T10:39:57;97518.81;;;-0.26;100.00
69848;BME280;57143;55.940;37.496;2023-03-02T10:42:27;97476.63;;;-0.03;100.00
69848;BME280;57143;55.940;37.496;2023-03-02T10:45:01;97467.38;;;0.19;100.00
69848;BME280;57143;55.940;37.496;2023-03-02T10:47:31;97490.31;;;0.27;100.00
69848;BME280;57143;55.940;37.496;2023-03-02T10:49:58;97477.84;;;-0.25;100.00
69848;BME280;57143;55.940;37.496;2023-03-02T10:52:26;97429.94;;;-0.32;100.00
69848;BME280;57143;55.940;37.496;2023-03-02T10:55:08;97457.78;;;-0.02;100.00
69848;BME280;57143;55.940;37.496;2023-03-02T10:57:39;97448.13;;;0.11;100.00
69848;BME280;57143;55.940;37.496;2023-03-02T11:00:17;97444.06;;;-0.05;100.00
69848;BME280;57143;55.940;37.496;2023-03-02T11:02:49;97433.63;;;-0.20;100.00
69848;BME280;57143;55.940;37.496;2023-03-02T11:05:26;97433.22;;;-0.49;100.00
69848;BME280;57143;55.940;37.496;2023-03-02T11:07:55;97388.78;;;-0.75;100.00
69848;BME280;57143;55.940;37.496;2023-03-02T11:10:26;97367.31;;;-0.67;100.00
69848;BME280;57143;55.940;37.496;2023-03-02T11:12:53;97295.28;;;-0.72;100.00
69848;BME280;57143;55.940;37.496;2023-03-02T11:15:23;97262.16;;;-0.76;100.00
69848;BME280;57143;55.940;37.496;2023-03-02T11:17:56;97263.22;;;-0.90;100.00
69848;BME280;57143;55.940;37.496;2023-03-02T11:20:30;97251.72;;;-0.58;100.00
69848;BME280;57143;55.940;37.496;2023-03-02T11:23:14;97259.50;;;-0.76;100.00
69848;BME280;57143;55.940;37.496;2023-03-02T11:25:49;97265.41;;;-0.67;100.00
69848;BME280;57143;55.940;37.496;2023-03-02T11:28:32;97267.63;;;-0.38;100.00
69848;BME280;57143;55.940;37.496;2023-03-02T11:31:05;97255.56;;;-0.41;100.00
69848;BME280;57143;55.940;37.496;2023-03-02T11:33:37;97258.50;;;0.02;100.00
69848;BME280;57143;55.940;37.496;2023-03-02T11:36:11;97267.19;;;-0.29;100.00
69848;BME280;57143;55.940;37.496;2023-03-02T11:38:46;97279.94;;;-0.44;100.00
69848;BME280;57143;55.940;37.496;2023-03-02T11:41:23;97265.41;;;-0.54;100.00
69848;BME280;57143;55.940;37.496;2023-03-02T11:43:52;97268.09;;;-0.61;100.00
69848;BME280;57143;55.940;37.496;2023-03-02T11:46:23;97251.13;;;-0.73;100.00
69848;BME280;57143;55.940;37.496;2023-03-02T11:48:53;97260.31;;;-0.69;100.00
69848;BME280;57143;55.940;37.496;2023-03-02T11:51:22;97274.41;;;-0.49;100.00
69848;BME280;57143;55.940;37.496;2023-03-02T11:53:54;97267.47;;;-0.56;100.00
69848;BME280;57143;55.940;37.496;2023-03-02T11:56:27;97286.50;;;-0.66;100.00
69848;BME280;57143;55.940;37.496;2023-03-02T11:58:58;97224.13;;;-0.89;100.00
69848;BME280;57143;55.940;37.496;2023-03-02T12:01:26;97281.56;;;-0.49;100.00
69848;BME280;57143;55.940;37.496;2023-03-02T12:04:06;97293.41;;;-0.39;100.00
69848;BME280;57143;55.940;37.496;2023-03-02T12:06:36;97289.16;;;-0.59;100.00
69848;BME280;57143;55.940;37.496;2023-03-02T12:09:10;97300.41;;;-0.64;100.00
69848;BME280;57143;55.940;37.496;2023-03-02T12:11:58;97308.41;;;-0.90;100.00
69848;BME280;57143;55.940;37.496;2023-03-02T12:14:34;97362.78;;;-0.79;100.00
69848;BME280;57143;55.940;37.496;2023-03-02T12:17:18;97384.50;;;-0.56;100.00
69848;BME280;57143;55.940;37.496;2023-03-02T12:19:46;97406.94;;;-0.91;100.00
69848;BME280;57143;55.940;37.496;2023-03-02T12:22:26;97412.47;;;-0.93;100.00
69848;BME280;57143;55.940;37.496;2023-03-02T12:25:00;97435.94;;;-1.16;100.00
69848;BME280;57143;55.940;37.496;2023-03-02T12:27:38;97454.03;;;-0.79;100.00
69848;BME280;57143;55.940;37.496;2023-03-02T12:30:25;97482.28;;;-0.78;100.00
69848;BME280;57143;55.940;37.496;2023-03-02T12:33:01;97471.59;;;-0.84;100.00
69848;BME280;57143;55.940;37.496;2023-03-02T12:35:30;97478.59;;;-0.70;100.00
69848;BME280;57143;55.940;37.496;2023-03-02T12:38:00;97465.75;;;-0.54;100.00
69848;BME280;57143;55.940;37.496;2023-03-02T12:40:51;97378.31;;;-1.09;100.00
69848;BME280;57143;55.940;37.496;2023-03-02T12:43:29;97453.19;;;-0.86;100.00
69848;BME280;57143;55.940;37.496;2023-03-02T12:46:21;97437.66;;;-0.82;100.00
69848;BME280;57143;55.940;37.496;2023-03-02T12:48:57;97434.63;;;-0.73;100.00
69848;BME280;57143;55.940;37.496;2023-03-02T12:51:26;97432.94;;;-0.87;100.00
69848;BME280;57143;55.940;37.496;2023-03-02T12:54:01;97421.91;;;-0.90;100.00